Terminal Aerodrome Forecast
Issued by NWS

Home | Current Version | Previous Version | Text Only | Print | Product List | Glossary On
Versions: 1 2 3 4 5 6 7 8 9 10 11 12 13 14 15 16
000
FTUS43 KABR 280500
TAFATY
TAF
KATY 280520Z 2806/2906 16006KT P6SM SCT070 SCT100
     FM281200 35006KT P6SM BKN013 BKN100
     FM281700 03008KT P6SM OVC020
     FM282200 03009KT P6SM BKN070 OVC250=

USA.gov is the U.S. government's official web portal to all federal, state and local government web resources and services.